Time;durP1;ratioP1;P1;durP2;ratioP2;P2;SDS_P1;SDS_P2;PMS_P1;PMS_P2;Temp;Humidity;BMP_temperature;BMP_pressure;BME280_temperature;BME280_humidity;BME280_pressure;Samples;Min_cycle;Max_cycle;Signal;HPM_P1;HPM_P2
2022/06/09 00:00:37;;;;;;;15.68;11.43;;;;;;;17.56;100.00;97894.81;4500967;31;20087;-79
2022/06/09 00:03:11;;;;;;;18.05;11.10;;;;;;;17.56;100.00;97896.63;4499654;31;20498;-79
2022/06/09 00:05:39;;;;;;;19.40;12.33;;;;;;;17.47;100.00;97888.09;4499637;31;20088;-79
2022/06/09 00:08:07;;;;;;;16.37;12.05;;;;;;;17.35;100.00;97895.81;4499370;31;20195;-79
2022/06/09 00:10:38;;;;;;;16.08;12.05;;;;;;;17.29;100.00;97895.78;4499294;31;20095;-79
2022/06/09 00:13:05;;;;;;;17.15;12.30;;;;;;;17.28;100.00;97899.47;4500898;31;20084;-80
2022/06/09 00:15:33;;;;;;;16.37;11.75;;;;;;;17.31;100.00;97899.06;4500821;31;20166;-80
2022/06/09 00:18:00;;;;;;;15.07;10.98;;;;;;;17.23;100.00;97900.06;4500879;31;20156;-79
2022/06/09 00:20:28;;;;;;;16.65;11.23;;;;;;;17.16;100.00;97893.94;4500823;31;20382;-79
2022/06/09 00:22:55;;;;;;;21.45;11.45;;;;;;;17.12;100.00;97900.66;4500603;31;20100;-79
2022/06/09 00:25:22;;;;;;;13.68;10.50;;;;;;;17.07;100.00;97895.16;4501028;31;20075;-79
2022/06/09 00:27:49;;;;;;;15.60;10.70;;;;;;;17.06;100.00;97902.25;4500755;31;20381;-79
2022/06/09 00:30:19;;;;;;;18.77;11.82;;;;;;;17.06;100.00;97901.44;4500691;31;20430;-79
2022/06/09 00:32:46;;;;;;;17.27;12.48;;;;;;;17.06;100.00;97896.16;4515519;31;20122;-79
2022/06/09 00:35:13;;;;;;;19.75;12.23;;;;;;;17.13;100.00;97895.16;4516603;31;20083;-79
2022/06/09 00:37:41;;;;;;;17.95;12.43;;;;;;;17.10;100.00;97895.56;4516452;31;20134;-79
2022/06/09 00:40:10;;;;;;;17.10;12.48;;;;;;;17.16;100.00;97892.09;4516509;31;20164;-79
2022/06/09 00:42:38;;;;;;;29.75;13.88;;;;;;;17.15;100.00;97897.59;4516315;31;20908;-79
2022/06/09 00:45:26;;;;;;;14.15;10.93;;;;;;;17.09;100.00;97891.25;4516477;31;20477;-79
2022/06/09 00:48:02;;;;;;;17.55;11.30;;;;;;;17.10;100.00;97892.09;4516520;31;20079;-79
2022/06/09 00:50:30;;;;;;;14.48;11.38;;;;;;;17.11;100.00;97889.25;4502112;31;20111;-79
2022/06/09 00:53:02;;;;;;;16.62;11.65;;;;;;;17.08;100.00;97889.66;4502302;31;20551;-79
2022/06/09 00:55:31;;;;;;;17.47;11.03;;;;;;;17.05;100.00;97895.34;4502237;31;20100;-79
2022/06/09 00:58:04;;;;;;;16.08;10.82;;;;;;;17.01;100.00;97886.19;4502141;31;20605;-79
2022/06/09 01:00:56;;;;;;;16.08;11.70;;;;;;;16.95;100.00;97889.63;4502105;31;20103;-80
2022/06/09 01:03:27;;;;;;;14.68;11.27;;;;;;;16.91;100.00;97883.94;4516035;31;20088;-80
2022/06/09 01:06:02;;;;;;;14.27;10.70;;;;;;;16.95;100.00;97889.63;4516301;31;20096;-79
2022/06/09 01:08:30;;;;;;;17.52;12.27;;;;;;;17.04;100.00;97893.72;4516225;31;20091;-79
2022/06/09 01:10:57;;;;;;;16.40;12.27;;;;;;;17.04;100.00;97891.06;4516118;31;20119;-79
2022/06/09 01:13:25;;;;;;;18.35;13.35;;;;;;;17.12;100.00;97890.06;4515951;31;20560;-79
2022/06/09 01:16:04;;;;;;;19.37;13.10;;;;;;;17.19;100.00;97886.41;4516151;31;20113;-79
2022/06/09 01:18:41;;;;;;;17.25;12.25;;;;;;;17.18;100.00;97889.25;4501801;31;20126;-79
2022/06/09 01:21:42;;;;;;;18.35;11.77;;;;;;;17.19;100.00;97889.06;4517780;31;20084;-79
2022/06/09 01:24:44;;;;;;;19.87;13.27;;;;;;;17.18;100.00;97886.59;4518020;31;20083;-79
2022/06/09 01:27:34;;;;;;;18.83;12.80;;;;;;;17.18;100.00;97887.44;4503509;31;20179;-79
2022/06/09 01:30:15;;;;;;;20.48;13.50;;;;;;;17.24;100.00;97882.34;4503714;31;20131;-79
2022/06/09 01:32:49;;;;;;;18.85;13.15;;;;;;;17.29;100.00;97874.59;4503210;31;20119;-79
2022/06/09 01:36:01;;;;;;;17.12;11.77;;;;;;;17.29;100.00;97871.97;4500875;31;20155;-79
2022/06/09 01:38:28;;;;;;;16.58;12.45;;;;;;;17.31;100.00;97862.81;4437033;32;20090;-79
2022/06/09 01:40:55;;;;;;;18.48;11.30;;;;;;;17.32;100.00;97868.91;4436988;32;20121;-79
2022/06/09 01:43:22;;;;;;;19.80;11.90;;;;;;;17.33;100.00;97863.41;4436863;32;20300;-79
2022/06/09 01:45:58;;;;;;;16.08;12.10;;;;;;;17.35;100.00;97865.84;4424506;32;20120;-79
2022/06/09 01:48:27;;;;;;;14.45;11.35;;;;;;;17.38;100.00;97862.78;4436935;32;20097;-79
2022/06/09 01:50:59;;;;;;;16.30;11.48;;;;;;;17.36;100.00;97870.12;4424588;32;20109;-79
2022/06/09 01:53:36;;;;;;;16.62;12.23;;;;;;;17.34;100.00;97870.34;4424592;32;20105;-79
2022/06/09 01:56:08;;;;;;;18.20;12.88;;;;;;;17.31;100.00;97870.75;4436839;32;20187;-79
2022/06/09 01:58:58;;;;;;;18.30;12.60;;;;;;;17.31;100.00;97870.75;4436729;32;20109;-79
2022/06/09 02:01:31;;;;;;;21.02;13.00;;;;;;;17.30;100.00;97869.09;4436712;32;20109;-79
2022/06/09 02:04:01;;;;;;;16.92;12.23;;;;;;;17.33;100.00;97873.19;4424043;32;20123;-79
2022/06/09 02:06:29;;;;;;;16.62;11.85;;;;;;;17.36;100.00;97870.12;4423991;32;20097;-79
2022/06/09 02:08:56;;;;;;;17.67;12.43;;;;;;;17.36;100.00;97875.44;4424032;32;20089;-79
2022/06/09 02:11:24;;;;;;;15.48;11.85;;;;;;;17.33;100.00;97874.00;4424151;32;20198;-79
2022/06/09 02:13:52;;;;;;;17.48;11.85;;;;;;;17.36;100.00;97886.81;4446280;31;20138;-79
2022/06/09 02:16:21;;;;;;;16.27;11.75;;;;;;;17.39;100.00;97880.31;4500421;31;20111;-79
2022/06/09 02:18:52;;;;;;;20.23;14.48;;;;;;;17.36;100.00;97878.06;4500626;31;20087;-79
2022/06/09 02:21:29;;;;;;;22.13;13.85;;;;;;;17.46;100.00;97875.84;4501648;31;20119;-79
2022/06/09 02:23:56;;;;;;;21.90;15.07;;;;;;;17.41;100.00;97873.00;4501690;31;20538;-79
2022/06/09 02:26:24;;;;;;;22.62;14.23;;;;;;;17.44;100.00;97875.25;4501476;31;20155;-79
2022/06/09 02:28:51;;;;;;;22.48;14.57;;;;;;;17.51;100.00;97876.03;4501582;31;20088;-79
2022/06/09 02:31:20;;;;;;;23.55;15.30;;;;;;;17.53;100.00;97874.03;4506848;31;20107;-79
2022/06/09 02:33:48;;;;;;;22.17;16.30;;;;;;;17.51;100.00;97875.25;4517202;31;20434;-79
2022/06/09 02:36:16;;;;;;;23.25;15.70;;;;;;;17.56;100.00;97870.12;4517503;31;20750;-79
2022/06/09 02:38:43;;;;;;;26.08;16.08;;;;;;;17.51;100.00;97875.25;4517446;31;20099;-79
2022/06/09 02:41:11;;;;;;;25.95;17.30;;;;;;;17.52;100.00;97879.53;4517128;31;20100;-79
2022/06/09 02:43:40;;;;;;;25.52;16.60;;;;;;;17.51;100.00;97875.25;4517369;31;20110;-79
2022/06/09 02:46:08;;;;;;;57.38;18.33;;;;;;;17.60;100.00;97876.66;4517288;31;20083;-79
2022/06/09 02:48:35;;;;;;;132.70;23.50;;;;;;;17.63;100.00;97880.75;4517346;31;20167;-79
2022/06/09 02:51:23;;;;;;;171.90;21.02;;;;;;;17.55;100.00;97885.22;4517486;31;20087;-79
2022/06/09 02:53:50;;;;;;;128.38;20.83;;;;;;;17.60;100.00;97875.84;4517296;31;20103;-79
2022/06/09 02:56:18;;;;;;;70.35;18.67;;;;;;;17.62;100.00;97879.91;4517280;31;20091;-79
2022/06/09 02:58:45;;;;;;;161.73;19.70;;;;;;;17.76;100.00;97883.38;4517288;31;20534;-79
2022/06/09 03:01:12;;;;;;;106.75;18.27;;;;;;;17.80;100.00;97875.84;4517338;31;20471;-79
2022/06/09 03:03:39;;;;;;;84.07;18.65;;;;;;;17.86;100.00;97881.13;4517328;31;20100;-79
2022/06/09 03:06:07;;;;;;;54.78;17.73;;;;;;;17.61;100.00;97877.47;4517282;31;20100;-79
2022/06/09 03:08:35;;;;;;;49.92;17.98;;;;;;;17.66;100.00;97875.03;4517176;31;20100;-79
2022/06/09 03:11:02;;;;;;;88.50;18.48;;;;;;;17.73;100.00;97871.34;4516833;31;20147;-79
2022/06/09 03:13:30;;;;;;;138.18;21.10;;;;;;;17.76;100.00;97870.16;4516936;31;20463;-79
2022/06/09 03:15:57;;;;;;;253.80;24.45;;;;;;;17.80;100.00;97876.63;4517166;31;20175;-79
2022/06/09 03:18:24;;;;;;;172.20;21.55;;;;;;;17.56;100.00;97878.06;4517068;31;20147;-79
2022/06/09 03:20:51;;;;;;;202.15;20.02;;;;;;;17.56;100.00;97884.22;4502920;31;20126;-79
2022/06/09 03:23:19;;;;;;;142.98;20.00;;;;;;;17.73;100.00;97881.97;4516917;31;20481;-79
2022/06/09 03:25:46;;;;;;;160.65;18.90;;;;;;;17.84;100.00;97885.81;4517406;31;20111;-79
2022/06/09 03:28:13;;;;;;;119.90;17.20;;;;;;;17.82;100.00;97877.28;4517187;31;20091;-79
2022/06/09 03:30:41;;;;;;;216.82;21.12;;;;;;;17.85;100.00;97879.50;4515758;31;20115;-79
2022/06/09 03:33:08;;;;;;;283.98;22.65;;;;;;;17.83;100.00;97878.88;4501025;31;20091;-79
2022/06/09 03:35:36;;;;;;;243.40;19.50;;;;;;;17.78;100.00;97884.00;4500892;31;20151;-79
2022/06/09 03:38:04;;;;;;;182.70;18.55;;;;;;;17.74;100.00;97880.94;4499987;31;20083;-79
2022/06/09 03:40:32;;;;;;;208.25;20.05;;;;;;;17.85;100.00;97879.50;4501106;31;20524;-79
2022/06/09 03:43:02;;;;;;;171.23;18.05;;;;;;;17.75;100.00;97868.50;4498948;31;20402;-79
2022/06/09 03:45:31;;;;;;;39.65;16.17;;;;;;;17.89;100.00;97870.12;4501413;31;20563;-79
2022/06/09 03:47:58;;;;;;;27.42;15.75;;;;;;;18.02;100.00;97873.81;4499683;31;20148;-79
2022/06/09 03:50:27;;;;;;;37.97;13.27;;;;;;;18.14;100.00;97882.75;4501090;31;20135;-79
2022/06/09 03:52:55;;;;;;;27.77;13.77;;;;;;;18.24;100.00;97877.81;4501155;31;20100;-79
2022/06/09 03:55:23;;;;;;;167.52;18.75;;;;;;;18.36;100.00;97874.53;4500891;31;20089;-79
2022/06/09 03:57:51;;;;;;;32.33;13.68;;;;;;;18.52;100.00;97876.69;4501089;31;20084;-79
2022/06/09 04:00:22;;;;;;;36.45;13.13;;;;;;;18.68;100.00;97879.91;4500858;31;20141;-79
2022/06/09 04:02:49;;;;;;;40.70;12.82;;;;;;;18.72;100.00;97887.22;4500906;31;20091;-81
2022/06/09 04:05:17;;;;;;;30.55;12.07;;;;;;;18.72;100.00;97889.87;4506613;31;20160;-81
2022/06/09 04:07:44;;;;;;;17.42;11.18;;;;;;;18.83;100.00;97883.09;4516764;31;20088;-80
2022/06/09 04:10:23;;;;;;;24.92;11.25;;;;;;;19.06;100.00;97877.28;4516792;31;20091;-80
2022/06/09 04:12:50;;;;;;;16.50;10.45;;;;;;;19.20;100.00;97875.34;4516691;31;20517;-80
2022/06/09 04:15:18;;;;;;;17.23;10.63;;;;;;;19.30;100.00;97874.87;4516793;31;20107;-81
2022/06/09 04:17:46;;;;;;;17.48;11.05;;;;;;;19.32;100.00;97875.47;4516715;31;20092;-82
2022/06/09 04:20:18;;;;;;;14.65;11.12;;;;;;;19.35;100.00;97877.72;4516808;31;20095;-82
2022/06/09 04:22:46;;;;;;;14.52;10.60;;;;;;;19.55;100.00;97880.19;4516766;31;20126;-81
2022/06/09 04:25:17;;;;;;;14.93;11.35;;;;;;;19.64;100.00;97881.56;4516713;31;20475;-82
2022/06/09 04:27:45;;;;;;;14.63;10.45;;;;;;;19.56;100.00;97879.19;4516941;31;20096;-81
2022/06/09 04:30:13;;;;;;;16.35;11.07;;;;;;;19.55;100.00;97882.84;4516829;31;20115;-81
2022/06/09 04:32:40;;;;;;;15.32;11.48;;;;;;;19.75;100.00;97884.53;4502255;31;20122;-81
2022/06/09 04:35:08;;;;;;;18.23;12.75;;;;;;;20.02;100.00;97887.78;4500850;31;20111;-81
2022/06/09 04:40:22;;;;;;;16.10;11.68;;;;;;;19.85;100.00;97896.31;4506204;31;20091;-81
2022/06/09 04:42:49;;;;;;;23.17;13.13;;;;;;;19.79;100.00;97905.19;4500424;31;20096;-81
2022/06/09 04:45:16;;;;;;;23.15;13.95;;;;;;;19.67;100.00;97905.03;4500941;31;20110;-81
2022/06/09 04:47:44;;;;;;;16.60;12.95;;;;;;;19.70;100.00;97909.09;4500568;31;20119;-82
2022/06/09 04:50:12;;;;;;;20.20;13.35;;;;;;;19.56;100.00;97908.41;4500242;31;20100;-79
2022/06/09 04:52:39;;;;;;;16.73;13.35;;;;;;;19.60;100.00;97908.78;4510462;31;20100;-81
2022/06/09 04:55:07;;;;;;;19.98;13.82;;;;;;;19.60;100.00;97912.25;4513768;31;20587;-81
2022/06/09 04:57:34;;;;;;;18.33;13.62;;;;;;;19.49;100.00;97915.59;4516447;31;20548;-82
2022/06/09 05:00:03;;;;;;;17.80;14.02;;;;;;;19.41;100.00;97915.84;4516505;31;20087;-82
2022/06/09 05:02:31;;;;;;;20.35;13.80;;;;;;;19.33;100.00;97909.78;4509505;31;20095;-82
2022/06/09 05:04:58;;;;;;;23.10;14.95;;;;;;;19.27;100.00;97907.16;4509592;31;20108;-81
2022/06/09 05:07:25;;;;;;;25.10;16.58;;;;;;;19.12;100.00;97916.25;4511311;31;20495;-82
2022/06/09 05:09:52;;;;;;;26.60;17.65;;;;;;;19.33;100.00;97916.94;4515023;31;20095;-80
2022/06/09 05:12:20;;;;;;;26.35;17.98;;;;;;;19.46;100.00;97921.34;4509913;31;20172;-81
2022/06/09 05:14:49;;;;;;;32.85;20.77;;;;;;;19.48;100.00;97914.78;4510243;31;20096;-81
2022/06/09 05:17:16;;;;;;;29.85;18.92;;;;;;;19.45;100.00;97917.06;4503989;31;20140;-82
2022/06/09 05:19:43;;;;;;;28.50;19.25;;;;;;;19.48;100.00;97922.75;4511432;31;20148;-81
2022/06/09 05:22:10;;;;;;;28.55;19.33;;;;;;;19.55;100.00;97914.75;4513866;31;20454;-80
2022/06/09 05:24:37;;;;;;;32.38;20.98;;;;;;;19.62;100.00;97914.69;4514923;31;20100;-81
2022/06/09 05:27:05;;;;;;;28.55;19.75;;;;;;;19.68;100.00;97914.63;4515640;31;20178;-81
2022/06/09 05:29:32;;;;;;;28.45;19.52;;;;;;;20.06;100.00;97920.06;4515691;31;20139;-81
2022/06/09 05:32:01;;;;;;;26.73;18.67;;;;;;;20.28;100.00;97931.09;4509185;31;20442;-81
2022/06/09 05:34:32;;;;;;;26.35;18.98;;;;;;;20.54;99.71;97925.47;4494476;31;20134;-80
2022/06/09 05:36:59;;;;;;;25.60;18.48;;;;;;;20.89;97.05;97929.41;4499460;31;20088;-81
2022/06/09 05:45:01;;;;;;;24.42;16.55;;;;;;;21.59;89.24;97926.19;4499942;31;20134;-81
2022/06/09 05:47:28;;;;;;;25.52;16.17;;;;;;;21.58;88.67;97924.56;4498894;31;20156;-81
2022/06/09 05:49:55;;;;;;;21.48;14.95;;;;;;;21.53;90.09;97929.78;4509071;31;20103;-80
2022/06/09 05:52:28;;;;;;;23.10;15.68;;;;;;;21.55;89.28;97932.22;4503844;31;20164;-81
2022/06/09 05:54:55;;;;;;;21.27;15.70;;;;;;;21.85;89.54;97939.31;4511563;31;20168;-81
2022/06/09 05:57:24;;;;;;;27.33;16.42;;;;;;;21.50;90.08;97940.06;4515380;31;20152;-81
2022/06/09 05:59:51;;;;;;;21.48;15.75;;;;;;;21.43;91.73;97938.28;4500063;31;20103;-83
2022/06/09 06:02:21;;;;;;;17.50;13.95;;;;;;;21.40;90.92;97925.41;4513685;31;20087;-82
2022/06/09 06:04:49;;;;;;;21.20;11.88;;;;;;;21.55;88.73;97942.87;4510587;31;20083;-83
2022/06/09 06:07:17;;;;;;;22.98;14.50;;;;;;;21.41;87.24;97943.03;4513752;31;20476;-82
2022/06/09 06:09:44;;;;;;;17.85;12.95;;;;;;;21.44;89.92;97947.12;4513728;31;20060;-79
2022/06/09 06:12:11;;;;;;;13.60;11.20;;;;;;;21.72;89.00;97951.81;4510407;31;20096;-79
2022/06/09 06:14:40;;;;;;;13.35;10.57;;;;;;;21.38;88.37;97954.16;4511442;31;20104;-77
2022/06/09 06:17:07;;;;;;;15.43;12.35;;;;;;;21.40;85.98;97953.94;4511228;31;20157;-78
2022/06/09 06:19:35;;;;;;;18.80;11.82;;;;;;;21.53;87.63;97950.28;4507431;31;20477;-77
2022/06/09 06:22:08;;;;;;;12.10;9.02;;;;;;;21.84;87.44;97951.03;4504477;31;20169;-77
2022/06/09 06:24:35;;;;;;;12.07;8.38;;;;;;;21.65;85.69;97951.13;4512401;31;20091;-78
2022/06/09 06:27:03;;;;;;;12.35;9.20;;;;;;;21.60;84.87;97951.00;4512750;31;20104;-79
2022/06/09 06:29:50;;;;;;;17.27;10.52;;;;;;;21.54;86.54;97952.69;4508378;31;20114;-80
2022/06/09 06:32:17;;;;;;;18.62;12.35;;;;;;;21.35;86.11;97953.81;4511534;31;20147;-78
2022/06/09 06:34:45;;;;;;;39.65;15.73;;;;;;;20.83;88.48;97956.91;4510767;31;20140;-79
2022/06/09 06:37:12;;;;;;;19.55;13.13;;;;;;;20.80;87.19;97952.84;4512839;31;20106;-78
2022/06/09 06:39:39;;;;;;;25.35;15.32;;;;;;;20.86;89.01;97945.81;4512668;31;20122;-78
2022/06/09 06:42:07;;;;;;;19.62;13.85;;;;;;;20.90;91.26;97944.34;4516672;31;20103;-76
2022/06/09 06:44:34;;;;;;;29.98;15.48;;;;;;;21.06;90.60;97950.87;4509695;31;20092;-77
2022/06/09 06:47:02;;;;;;;27.08;16.58;;;;;;;20.95;91.24;97946.34;4505678;31;20100;-77
2022/06/09 06:49:29;;;;;;;31.48;17.73;;;;;;;20.67;93.52;97958.34;4510220;31;20127;-78
2022/06/09 06:51:56;;;;;;;35.47;19.98;;;;;;;20.51;93.97;97955.19;4512903;31;20509;-78
2022/06/09 06:54:23;;;;;;;32.30;19.73;;;;;;;20.58;94.51;97952.47;4515342;31;20087;-80
2022/06/09 06:56:50;;;;;;;29.75;18.70;;;;;;;20.45;94.34;97947.28;4511877;31;20088;-78
2022/06/09 06:59:18;;;;;;;27.08;17.90;;;;;;;20.70;93.10;97952.59;4516987;31;20104;-79
2022/06/09 07:01:45;;;;;;;29.00;18.30;;;;;;;20.78;92.83;97951.47;4508570;31;20147;-79
2022/06/09 07:04:13;;;;;;;31.98;19.48;;;;;;;20.92;93.60;97956.41;4509121;31;20644;-82
2022/06/09 07:06:41;;;;;;;36.55;20.17;;;;;;;20.79;94.28;97971.69;4510507;31;20118;-81
2022/06/09 07:09:08;;;;;;;24.70;15.80;;;;;;;20.68;94.45;97966.13;4516096;31;20538;-83
2022/06/09 07:11:35;;;;;;;23.73;13.75;;;;;;;20.62;95.59;97972.28;4514020;31;20096;-80
2022/06/09 07:14:04;;;;;;;19.55;13.13;;;;;;;20.20;96.98;97974.75;4516731;31;20100;-79
2022/06/09 07:16:33;;;;;;;20.80;13.80;;;;;;;20.04;100.00;97984.09;4512118;31;20091;-81
2022/06/09 07:19:16;;;;;;;20.15;12.27;;;;;;;19.93;100.00;97982.16;4506288;31;20494;-79
2022/06/09 07:21:43;;;;;;;23.85;13.15;;;;;;;19.66;100.00;97969.81;4509680;31;20562;-79
2022/06/09 07:24:11;;;;;;;20.45;11.80;;;;;;;19.59;100.00;97966.44;4508472;31;20092;-79
2022/06/09 07:26:38;;;;;;;17.83;13.00;;;;;;;19.60;100.00;97969.88;4504929;31;20104;-77
2022/06/09 07:29:05;;;;;;;16.45;12.00;;;;;;;19.62;100.00;97960.69;4504686;31;20151;-81
2022/06/09 07:31:33;;;;;;;18.33;12.05;;;;;;;19.42;100.00;97967.97;4508724;31;20096;-78
2022/06/09 07:34:00;;;;;;;20.95;13.25;;;;;;;19.39;100.00;97976.34;4509134;31;20100;-76
2022/06/09 07:36:28;;;;;;;19.33;12.50;;;;;;;19.51;100.00;97979.94;4516534;31;20092;-76
2022/06/09 07:38:55;;;;;;;18.75;12.50;;;;;;;19.63;100.00;97988.06;4514325;31;20477;-77
2022/06/09 07:41:22;;;;;;;18.87;12.75;;;;;;;19.69;100.00;97982.69;4510140;31;20113;-77
2022/06/09 07:44:00;;;;;;;16.27;11.32;;;;;;;19.67;100.00;97976.78;4507534;31;20099;-77
2022/06/09 07:46:28;;;;;;;14.00;10.43;;;;;;;20.24;100.00;97978.59;4505715;31;20110;-75
2022/06/09 07:48:56;;;;;;;18.30;10.55;;;;;;;20.73;100.00;97974.22;4516497;31;20096;-78
2022/06/09 07:51:24;;;;;;;14.00;9.45;;;;;;;20.97;100.00;97973.53;4514085;31;20108;-77
2022/06/09 07:53:52;;;;;;;10.63;7.05;;;;;;;21.23;96.81;97967.09;4500700;31;20511;-77
2022/06/09 07:56:19;;;;;;;15.05;7.10;;;;;;;21.18;93.68;97959.75;4491756;31;20555;-78
2022/06/09 07:58:47;;;;;;;9.20;5.78;;;;;;;21.04;91.73;97966.28;4501203;31;20159;-75
2022/06/09 08:01:14;;;;;;;9.30;6.25;;;;;;;21.27;89.06;97968.22;4506628;31;20151;-77
2022/06/09 08:03:42;;;;;;;14.87;7.22;;;;;;;21.28;91.11;97967.19;4506820;31;20100;-82
2022/06/09 08:06:10;;;;;;;11.02;7.20;;;;;;;21.64;91.54;97970.03;4507224;31;20108;-78
2022/06/09 08:08:56;;;;;;;9.60;6.57;;;;;;;21.78;93.04;97968.75;4506618;31;20104;-79
2022/06/09 08:11:30;;;;;;;9.00;6.95;;;;;;;21.87;87.26;97966.56;4510651;31;20117;-79
2022/06/09 08:13:58;;;;;;;11.25;6.75;;;;;;;22.23;85.44;97962.09;4505805;31;20148;-77
2022/06/09 08:16:28;;;;;;;9.50;7.40;;;;;;;22.57;87.70;97959.63;4508364;31;20365;-76
2022/06/09 08:18:56;;;;;;;10.40;6.68;;;;;;;23.02;83.17;97967.75;4509669;31;20502;-77
2022/06/09 08:21:29;;;;;;;7.50;4.90;;;;;;;23.47;80.40;97968.88;4504624;31;20087;-76
2022/06/09 08:24:14;;;;;;;8.20;4.45;;;;;;;23.58;79.73;97961.84;4504272;31;20449;-76
2022/06/09 08:26:42;;;;;;;6.25;3.97;;;;;;;23.59;77.05;97957.31;4505659;31;20099;-74
2022/06/09 08:29:09;;;;;;;5.78;3.62;;;;;;;23.58;75.59;97958.37;4507391;31;20118;-76
2022/06/09 08:31:36;;;;;;;5.50;4.10;;;;;;;23.36;78.47;97962.56;4510451;31;20107;-77
2022/06/09 08:34:04;;;;;;;4.62;3.72;;;;;;;23.53;80.58;97954.56;4510507;31;20130;-77
2022/06/09 08:36:31;;;;;;;7.28;4.07;;;;;;;23.54;78.82;97964.19;4512754;31;20454;-77
2022/06/09 08:38:58;;;;;;;5.43;4.00;;;;;;;23.52;76.41;97960.13;4513334;31;20156;-77
2022/06/09 08:41:41;;;;;;;4.55;3.22;;;;;;;23.25;76.99;97959.94;4504154;31;20130;-77
2022/06/09 08:44:15;;;;;;;5.85;3.60;;;;;;;23.80;75.37;97961.97;4504091;31;20135;-77
2022/06/09 08:46:45;;;;;;;5.68;3.30;;;;;;;23.59;77.50;97965.31;4505545;31;20852;-77
2022/06/09 08:49:24;;;;;;;5.60;3.55;;;;;;;23.36;75.47;97961.72;4510865;31;20083;-78
2022/06/09 08:51:53;;;;;;;6.40;2.95;;;;;;;23.78;78.09;97953.34;4505726;31;20955;-76
2022/06/09 08:54:27;;;;;;;3.37;3.05;;;;;;;23.92;75.10;97954.69;4503463;31;20206;-77
2022/06/09 08:56:56;;;;;;;4.72;3.65;;;;;;;23.64;74.13;97957.41;4501220;31;20497;-77
2022/06/09 08:59:26;;;;;;;5.97;4.35;;;;;;;23.63;73.69;97956.56;4494872;31;20714;-77
2022/06/09 09:01:58;;;;;;;9.45;5.87;;;;;;;23.91;76.01;97961.09;4495303;31;20405;-77
2022/06/09 09:04:40;;;;;;;4.15;3.33;;;;;;;23.85;75.40;97946.00;4504965;31;22149;-78
2022/06/09 09:07:30;;;;;;;4.30;3.55;;;;;;;23.82;71.96;97954.50;4504433;31;20471;-78
2022/06/09 09:10:15;;;;;;;6.05;3.87;;;;;;;24.00;73.80;97950.00;4491511;31;20108;-75
2022/06/09 09:13:14;;;;;;;4.12;3.15;;;;;;;24.20;71.39;97942.25;4508054;31;20162;-76
2022/06/09 09:15:42;;;;;;;3.47;2.70;;;;;;;24.29;70.80;97952.53;4490476;31;20107;-78
2022/06/09 09:18:42;;;;;;;2.40;2.08;;;;;;;24.31;71.06;97942.37;4493395;31;20096;-78
2022/06/09 09:21:47;;;;;;;3.00;2.20;;;;;;;23.83;70.08;97947.25;4505611;31;20112;-76
2022/06/09 09:24:23;;;;;;;3.35;2.50;;;;;;;23.84;70.75;97947.03;4508440;31;20141;-78
2022/06/09 09:26:50;;;;;;;3.97;2.12;;;;;;;23.94;70.15;97941.06;4511505;31;20118;-78
2022/06/09 09:29:25;;;;;;;3.70;2.92;;;;;;;24.09;67.06;97935.13;4510743;31;20862;-77
2022/06/09 09:31:59;;;;;;;3.47;2.75;;;;;;;24.45;68.85;97927.56;4502327;31;20153;-77
2022/06/09 09:34:36;;;;;;;4.20;2.60;;;;;;;24.33;68.25;97938.41;4495333;31;20144;-76
2022/06/09 09:37:27;;;;;;;4.68;3.00;;;;;;;24.34;67.62;97940.03;4512539;31;20100;-78
2022/06/09 09:40:05;;;;;;;3.90;3.37;;;;;;;23.98;68.15;97930.69;4510494;31;20096;-76
2022/06/09 09:42:34;;;;;;;3.92;2.78;;;;;;;24.14;69.29;97942.44;4489941;31;20156;-78
2022/06/09 09:45:10;;;;;;;3.53;2.30;;;;;;;24.07;63.44;97946.09;4503057;31;20103;-76
2022/06/09 09:47:57;;;;;;;3.45;2.87;;;;;;;24.24;65.94;97935.34;4515135;31;20084;-75
2022/06/09 09:50:37;;;;;;;5.00;3.33;;;;;;;24.22;67.17;97939.31;4506900;31;20639;-76
2022/06/09 09:53:19;;;;;;;3.10;2.35;;;;;;;24.11;69.17;97941.03;4508988;31;20130;-76
2022/06/09 09:55:53;;;;;;;4.50;2.92;;;;;;;24.46;65.08;97950.63;4511396;31;20127;-76
2022/06/09 09:58:26;;;;;;;4.43;2.40;;;;;;;24.71;64.24;97950.19;4515177;31;20114;-77
2022/06/09 10:01:14;;;;;;;4.72;3.67;;;;;;;24.54;65.54;97939.50;4508010;31;20149;-78
2022/06/09 10:09:31;;;;;;;5.87;3.30;;;;;;;24.96;65.87;97920.19;4426535;32;20113;-77
2022/06/09 10:12:28;;;;;;;3.08;2.72;;;;;;;25.18;64.15;97915.84;4440443;32;20131;-77
2022/06/09 10:15:19;;;;;;;5.72;4.32;;;;;;;25.53;66.49;97902.00;4426241;32;20117;-76
2022/06/09 10:17:58;;;;;;;5.45;4.00;;;;;;;24.95;62.10;97907.84;4425302;32;20154;-78
2022/06/09 10:20:51;;;;;;;6.72;4.47;;;;;;;25.01;64.13;97908.69;4438098;32;20136;-78
2022/06/09 10:23:49;;;;;;;6.50;4.82;;;;;;;25.62;62.38;97905.81;4449293;32;20495;-78
2022/06/09 10:26:22;;;;;;;5.85;4.82;;;;;;;26.05;59.88;97910.44;4391936;32;20110;-77
2022/06/09 10:28:55;;;;;;;;;;;;;;;26.25;59.35;97907.84;4390233;32;20443;-77
2022/06/09 10:31:40;;;;;;;6.15;4.93;;;;;;;26.19;63.64;97904.34;4389790;32;19986;-77
2022/06/09 10:34:34;;;;;;;5.87;4.65;;;;;;;26.56;61.32;97910.72;4389498;32;20114;-76
2022/06/09 10:37:15;;;;;;;8.32;5.20;;;;;;;25.95;60.23;97914.66;4377693;32;20147;-78
2022/06/09 10:39:54;;;;;;;6.85;5.10;;;;;;;25.76;62.06;97916.12;4389974;32;20114;-78
2022/06/09 10:42:40;;;;;;;8.38;4.78;;;;;;;25.23;62.79;97905.97;4417006;32;20178;-77
2022/06/09 10:45:15;;;;;;;6.12;4.75;;;;;;;25.17;62.97;97907.00;4403164;32;20641;-78
2022/06/09 10:57:09;;;;;;;8.60;4.65;;;;;;;25.32;62.04;97877.69;4416097;32;20166;-76
2022/06/09 10:59:39;;;;;;;5.30;4.62;;;;;;;25.37;61.45;97886.84;4419235;32;20106;-77
2022/06/09 11:02:14;;;;;;;8.85;4.80;;;;;;;25.48;61.60;97888.53;4434893;31;20167;-76
2022/06/09 11:04:42;;;;;;;10.68;5.35;;;;;;;26.24;60.11;97886.62;4491857;31;20135;-75
2022/06/09 11:07:38;;;;;;;7.18;5.80;;;;;;;27.02;57.19;97889.34;4506177;31;20127;-75
2022/06/09 11:10:24;;;;;;;7.35;5.03;;;;;;;26.78;55.44;97888.22;4503847;31;20176;-76
2022/06/09 11:13:16;;;;;;;6.97;5.68;;;;;;;25.86;58.14;97887.47;4506777;31;20084;-78
2022/06/09 11:16:16;;;;;;;6.80;5.55;;;;;;;25.81;57.68;97890.13;4508243;31;20111;-78
2022/06/09 11:19:07;;;;;;;5.45;4.40;;;;;;;26.02;57.55;97877.66;4494443;31;20699;-77
2022/06/09 11:22:02;;;;;;;6.55;4.70;;;;;;;25.80;58.50;97874.28;4507781;31;20107;-77
2022/06/09 11:24:51;;;;;;;9.43;4.40;;;;;;;26.10;57.10;97871.03;4479015;31;20163;-77
2022/06/09 11:27:38;;;;;;;5.45;4.47;;;;;;;26.16;56.33;97861.94;4508146;31;20088;-76
2022/06/09 11:30:21;;;;;;;6.53;4.43;;;;;;;25.61;57.95;97863.97;4510053;31;20107;-77
2022/06/09 11:33:07;;;;;;;7.07;4.90;;;;;;;25.38;61.00;97858.97;4499084;31;20172;-77
2022/06/09 11:35:55;;;;;;;7.45;4.53;;;;;;;24.97;63.49;97860.19;4506770;31;20158;-78
2022/06/09 11:38:42;;;;;;;14.98;5.57;;;;;;;24.38;66.53;97865.41;4488016;31;20100;-77
2022/06/09 11:41:34;;;;;;;21.15;9.18;;;;;;;24.19;68.69;97873.69;4507492;31;20501;-76
2022/06/09 11:44:18;;;;;;;10.63;6.72;;;;;;;24.08;75.18;97878.12;4512651;31;20096;-76
2022/06/09 11:46:45;;;;;;;11.73;6.40;;;;;;;23.37;80.75;97891.19;4492199;31;20115;-75
2022/06/09 11:49:33;;;;;;;12.48;6.50;;;;;;;22.67;81.80;97879.75;4507894;31;20104;-76
2022/06/09 11:52:03;;;;;;;17.08;7.10;;;;;;;22.36;86.77;97895.13;4509062;31;20114;-73
2022/06/09 11:54:42;;;;;;;29.65;10.68;;;;;;;22.09;90.80;97924.12;4506749;31;20183;-73
2022/06/09 11:57:16;;;;;;;14.85;8.40;;;;;;;21.24;99.62;97859.47;4504393;31;20151;-73
2022/06/09 12:00:24;;;;;;;10.68;7.95;;;;;;;21.06;96.81;97858.50;4510802;31;20148;-73
2022/06/09 12:03:25;;;;;;;14.35;8.77;;;;;;;20.62;100.00;97876.50;4505551;31;20145;-74
2022/06/09 12:05:58;;;;;;;11.25;7.97;;;;;;;20.13;100.00;97896.87;4507626;31;20100;-74